Aérodrome :
LOGIN :

S'inscrire | Disclaimer

   EN    FR    IT 

 










Légende :    VFR   VFR Marginal   IFR   IFR Intensif   IFR Très Intensif
Visi : 
Plafond : 
>= 8 km
>= 3000ft
5 à 8 km
1000 à 3000 ft
1500m à 5 km
500 à 1000 ft
800 à 1500m
200 à 500 ft
< 800m
< 200 ft
Symboles :   Orages  Brouillard  Fortes neiges  Fortes précipitations  Vent > 20 kt
SIGMETs :   Divers  Orages  Givrage  Turbulence  Onde Orograph.  Cendres Volcan.






- Altitude de l'aérodrome : -15 ft
- Code IATA : RTM


EHRD - Rotterdam Zestienhoven

DERNIER METAR :
  • 160955Z AUTO 16010KT 120V190 9999 SCT012 OVC015 14/11 Q1006 TEMPO 6000 -DZ BKN012

METARs EXPIRÉS :
  • 160925Z AUTO 16012KT 130V200 9999 FEW011 BKN014 OVC016 13/11 Q1006 TEMPO BKN015
  • 160855Z AUTO 17011KT 140V200 9999 SCT012 SCT015 13/11 Q1007 NOSIG
  • 160825Z AUTO 17010KT 9999 NCD 13/10 Q1007 NOSIG
  • 160755Z AUTO 18011KT 140V220 9999 NCD 12/10 Q1007 NOSIG
  • 160725Z AUTO 17011KT 9999 NCD 11/10 Q1007 NOSIG

TAF TAF EHRD
Valide du 16 à 06h jusqu'au 17 à 12h UTC


160441Z 1606/1712 19010KT 9999 SCT020
TEMPO 1606/1608 BKN006 BKN010
BECMG 1609/1612 17014KT 7000 -RA BKN012
BECMG 1612/1615 20015KT
TEMPO 1612/1624 3500 DZRA BKN007
BECMG 1700/1703 21005KT 9999 NSW SCT015 BKN030



MET'MAP, la Météo Aéronautique d'un coup d'oeil ! - Copyright ORBIFLY Décembre 2007 - Disclaimer

ORBIFLY MET'MAP TEAM :

Programmation & Développement : Alexandra Zaïnal
Conception & Développement : Baudouin d'Aumeries
Co-Programmation & Développement : Marc-Olivier Méhu
Soutien technique & logistique : Manuel Goepfert

Contact : metmap@orbifly.com




SOURCES & CREDITS :

   NOAA